Time,TemperatureF,DewpointF,PressureIn,WindDirection,WindDirectionDegrees,WindSpeedMPH,WindSpeedGustMPH,Humidity,HourlyPrecipIn,Conditions,Clouds,dailyrainin,SoftwareType,DateUTC
2013-03-13 00:00:00,36.1,34.3,29.78,NNW,334,2.0,2.0,93,0.00,,,0.00,Wunderground v.1.15,2013-03-13 04:00:00,
2013-03-13 00:05:00,36.0,34.2,29.78,NW,315,2.0,2.0,93,0.00,,,0.00,Wunderground v.1.15,2013-03-13 04:05:00,
2013-03-13 00:10:00,35.9,34.1,29.78,WNW,288,2.0,2.0,93,0.00,,,0.00,Wunderground v.1.15,2013-03-13 04:10:00,
2013-03-13 00:15:00,35.8,34.0,29.78,NNE,22,2.0,2.0,93,0.00,,,0.00,Wunderground v.1.15,2013-03-13 04:15:00,
2013-03-13 00:20:00,35.7,33.9,29.78,NNW,348,2.0,2.0,93,0.00,,,0.00,Wunderground v.1.15,2013-03-13 04:20:00,
2013-03-13 00:25:00,35.7,33.9,29.79,NW,321,2.0,2.0,93,0.00,,,0.00,Wunderground v.1.15,2013-03-13 04:25:00,
2013-03-13 00:30:00,35.7,33.9,29.79,WNW,284,2.0,4.0,93,0.00,,,0.00,Wunderground v.1.15,2013-03-13 04:30:00,
2013-03-13 00:35:00,35.7,33.9,29.79,WNW,302,2.0,4.0,93,0.00,,,0.00,Wunderground v.1.15,2013-03-13 04:35:00,
2013-03-13 00:40:00,35.7,33.9,29.79,WNW,293,3.0,5.0,93,0.00,,,0.00,Wunderground v.1.15,2013-03-13 04:40:00,
2013-03-13 00:45:00,35.7,33.9,29.79,West,262,3.0,5.0,93,0.00,,,0.00,Wunderground v.1.15,2013-03-13 04:45:00,
2013-03-13 00:55:00,35.3,33.2,29.79,WNW,288,3.0,3.0,92,0.00,,,0.00,Wunderground v.1.15,2013-03-13 04:55:00,
2013-03-13 01:00:00,35.3,33.2,29.79,WNW,292,2.0,5.0,92,0.00,,,0.00,Wunderground v.1.15,2013-03-13 05:00:00,
2013-03-13 01:05:00,35.2,33.1,29.80,NNW,330,2.0,5.0,92,0.00,,,0.00,Wunderground v.1.15,2013-03-13 05:05:00,
2013-03-13 01:10:00,35.1,33.0,29.79,North,5,3.0,3.0,92,0.00,,,0.00,Wunderground v.1.15,2013-03-13 05:10:00,
2013-03-13 01:15:00,35.1,33.0,29.80,NW,319,2.0,3.0,92,0.00,,,0.00,Wunderground v.1.15,2013-03-13 05:15:00,
2013-03-13 01:20:00,35.1,33.0,29.80,WNW,293,2.0,2.0,92,0.00,,,0.00,Wunderground v.1.15,2013-03-13 05:20:00,
2013-03-13 01:25:00,35.0,32.9,29.79,WNW,302,1.0,2.0,92,0.00,,,0.00,Wunderground v.1.15,2013-03-13 05:25:00,
2013-03-13 01:35:00,34.9,32.8,29.79,North,350,2.0,4.0,92,0.00,,,0.00,Wunderground v.1.15,2013-03-13 05:35:00,
2013-03-13 01:40:00,34.8,33.0,29.80,North,350,2.0,2.0,93,0.00,,,0.00,Wunderground v.1.15,2013-03-13 05:40:00,
2013-03-13 01:45:00,34.8,33.0,29.80,North,350,1.0,2.0,93,0.00,,,0.00,Wunderground v.1.15,2013-03-13 05:45:00,
2013-03-13 01:50:00,34.7,32.9,29.80,North,350,1.0,1.0,93,0.00,,,0.00,Wunderground v.1.15,2013-03-13 05:50:00,
2013-03-13 01:55:00,34.7,32.9,29.80,North,350,1.0,2.0,93,0.00,,,0.00,Wunderground v.1.15,2013-03-13 05:55:00,
2013-03-13 02:00:00,34.6,32.8,29.80,West,265,0.0,3.0,93,0.00,,,0.00,Wunderground v.1.15,2013-03-13 06:00:00,
2013-03-13 02:05:00,34.5,32.7,29.80,West,265,1.0,3.0,93,0.00,,,0.00,Wunderground v.1.15,2013-03-13 06:05:00,
2013-03-13 02:10:00,34.4,32.6,29.80,WNW,302,1.0,3.0,93,0.00,,,0.00,Wunderground v.1.15,2013-03-13 06:10:00,
2013-03-13 02:15:00,34.4,32.6,29.79,SW,236,1.0,3.0,93,0.00,,,0.00,Wunderground v.1.15,2013-03-13 06:15:00,
2013-03-13 02:20:00,34.3,32.5,29.80,NNW,342,1.0,2.0,93,0.00,,,0.00,Wunderground v.1.15,2013-03-13 06:20:00,
2013-03-13 02:25:00,34.3,32.5,29.79,NNW,346,1.0,2.0,93,0.00,,,0.00,Wunderground v.1.15,2013-03-13 06:25:00,
2013-03-13 02:30:00,34.3,32.2,29.79,NNW,346,1.0,1.0,92,0.00,,,0.00,Wunderground v.1.15,2013-03-13 06:30:00,
2013-03-13 02:40:00,34.3,32.2,29.79,SW,223,2.0,2.0,92,0.00,,,0.00,Wunderground v.1.15,2013-03-13 06:40:00,
2013-03-13 02:45:00,34.3,31.9,29.79,WNW,294,3.0,3.0,91,0.00,,,0.00,Wunderground v.1.15,2013-03-13 06:45:00,
2013-03-13 02:50:00,34.3,31.9,29.79,WNW,293,3.0,3.0,91,0.00,,,0.00,Wunderground v.1.15,2013-03-13 06:50:00,
2013-03-13 02:55:00,34.2,31.8,29.79,WNW,290,2.0,3.0,91,0.00,,,0.00,Wunderground v.1.15,2013-03-13 06:55:00,
2013-03-13 03:00:00,34.2,31.8,29.79,WNW,292,2.0,2.0,91,0.00,,,0.00,Wunderground v.1.15,2013-03-13 07:00:00,
2013-03-13 03:05:00,34.2,31.8,29.79,WSW,251,2.0,2.0,91,0.00,,,0.00,Wunderground v.1.15,2013-03-13 07:05:00,
2013-03-13 03:10:00,34.2,31.8,29.79,WSW,238,2.0,5.0,91,0.00,,,0.00,Wunderground v.1.15,2013-03-13 07:10:00,
2013-03-13 03:15:00,34.2,31.8,29.79,West,267,2.0,6.0,91,0.00,,,0.00,Wunderground v.1.15,2013-03-13 07:15:00,
2013-03-13 03:20:00,34.2,31.8,29.79,SW,227,2.0,2.0,91,0.00,,,0.00,Wunderground v.1.15,2013-03-13 07:20:00,
2013-03-13 03:25:00,34.2,31.8,29.79,East,98,2.0,2.0,91,0.00,,,0.00,Wunderground v.1.15,2013-03-13 07:25:00,
2013-03-13 03:30:00,34.2,31.8,29.79,SW,223,1.0,3.0,91,0.00,,,0.00,Wunderground v.1.15,2013-03-13 07:30:00,
2013-03-13 03:35:00,34.2,31.8,29.80,NW,305,1.0,3.0,91,0.00,,,0.00,Wunderground v.1.15,2013-03-13 07:35:00,
2013-03-13 03:40:00,34.2,31.8,29.79,WNW,302,1.0,1.0,91,0.00,,,0.00,Wunderground v.1.15,2013-03-13 07:40:00,
2013-03-13 03:45:00,34.3,31.9,29.79,WNW,301,1.0,1.0,91,0.00,,,0.00,Wunderground v.1.15,2013-03-13 07:45:00,
2013-03-13 03:50:00,34.3,31.9,29.79,WNW,301,0.0,0.0,91,0.00,,,0.00,Wunderground v.1.15,2013-03-13 07:50:00,
2013-03-13 03:55:00,34.3,31.9,29.79,WSW,257,0.0,0.0,91,0.00,,,0.00,Wunderground v.1.15,2013-03-13 07:55:00,
2013-03-13 04:10:00,34.2,31.8,29.79,North,360,1.0,3.0,91,0.00,,,0.00,Wunderground v.1.15,2013-03-13 08:10:00,
2013-03-13 04:15:00,34.2,31.8,29.79,NNW,332,2.0,3.0,91,0.00,,,0.00,Wunderground v.1.15,2013-03-13 08:15:00,
2013-03-13 04:20:00,34.1,31.7,29.79,NNW,346,1.0,2.0,91,0.00,,,0.00,Wunderground v.1.15,2013-03-13 08:20:00,
2013-03-13 04:25:00,34.1,31.7,29.79,NNW,346,1.0,2.0,91,0.00,,,0.00,Wunderground v.1.15,2013-03-13 08:25:00,
2013-03-13 04:30:00,34.1,31.7,29.79,NNW,346,1.0,1.0,91,0.00,,,0.00,Wunderground v.1.15,2013-03-13 08:30:00,
2013-03-13 04:35:00,34.1,31.7,29.79,NNW,346,0.0,1.0,91,0.00,,,0.00,Wunderground v.1.15,2013-03-13 08:35:00,
2013-03-13 04:40:00,34.1,31.7,29.79,NNW,346,0.0,0.0,91,0.00,,,0.00,Wunderground v.1.15,2013-03-13 08:40:00,
2013-03-13 04:45:00,34.2,31.8,29.79,West,264,1.0,1.0,91,0.00,,,0.00,Wunderground v.1.15,2013-03-13 08:45:00,
2013-03-13 04:50:00,34.2,31.8,29.79,WNW,302,1.0,1.0,91,0.00,,,0.00,Wunderground v.1.15,2013-03-13 08:50:00,
2013-03-13 04:55:00,34.3,31.9,29.79,WNW,302,1.0,1.0,91,0.00,,,0.00,Wunderground v.1.15,2013-03-13 08:55:00,
2013-03-13 05:00:00,34.2,31.8,29.79,NW,310,1.0,1.0,91,0.00,,,0.00,Wunderground v.1.15,2013-03-13 09:00:00,
2013-03-13 05:05:00,34.2,31.8,29.80,NW,310,1.0,1.0,91,0.00,,,0.00,Wunderground v.1.15,2013-03-13 09:05:00,
2013-03-13 05:10:00,34.2,31.8,29.80,NW,311,1.0,1.0,91,0.00,,,0.00,Wunderground v.1.15,2013-03-13 09:10:00,
2013-03-13 05:15:00,34.2,31.8,29.80,WNW,287,1.0,1.0,91,0.00,,,0.00,Wunderground v.1.15,2013-03-13 09:15:00,
2013-03-13 05:25:00,34.2,31.8,29.80,WNW,288,0.0,1.0,91,0.00,,,0.00,Wunderground v.1.15,2013-03-13 09:25:00,
2013-03-13 05:30:00,34.2,31.6,29.80,WNW,299,1.0,1.0,90,0.00,,,0.00,Wunderground v.1.15,2013-03-13 09:30:00,
2013-03-13 05:35:00,34.2,31.8,29.80,WNW,298,1.0,3.0,91,0.00,,,0.00,Wunderground v.1.15,2013-03-13 09:35:00,
2013-03-13 05:40:00,34.2,31.6,29.80,West,271,1.0,3.0,90,0.00,,,0.00,Wunderground v.1.15,2013-03-13 09:40:00,
2013-03-13 05:45:00,34.3,31.7,29.80,NW,306,1.0,3.0,90,0.00,,,0.00,Wunderground v.1.15,2013-03-13 09:45:00,
2013-03-13 05:50:00,34.3,31.7,29.80,NW,306,0.0,0.0,90,0.00,,,0.00,Wunderground v.1.15,2013-03-13 09:50:00,
2013-03-13 05:55:00,34.3,31.7,29.80,NW,305,0.0,1.0,90,0.00,,,0.00,Wunderground v.1.15,2013-03-13 09:55:00,
2013-03-13 06:00:00,34.3,31.4,29.80,WNW,284,1.0,1.0,89,0.00,,,0.00,Wunderground v.1.15,2013-03-13 10:00:00,
2013-03-13 06:05:00,34.3,31.4,29.80,WSW,248,1.0,1.0,89,0.00,,,0.00,Wunderground v.1.15,2013-03-13 10:05:00,
2013-03-13 06:10:00,34.3,31.4,29.80,WSW,249,1.0,3.0,89,0.00,,,0.00,Wunderground v.1.15,2013-03-13 10:10:00,
2013-03-13 06:20:00,34.3,31.7,29.80,WSW,244,1.0,1.0,90,0.00,,,0.00,Wunderground v.1.15,2013-03-13 10:20:00,
2013-03-13 06:25:00,34.3,31.7,29.80,WSW,244,0.0,1.0,90,0.00,,,0.00,Wunderground v.1.15,2013-03-13 10:25:00,
2013-03-13 06:30:00,34.2,31.6,29.80,North,355,0.0,0.0,90,0.00,,,0.00,Wunderground v.1.15,2013-03-13 10:30:00,
2013-03-13 06:35:00,34.3,31.9,29.80,North,355,0.0,0.0,91,0.00,,,0.00,Wunderground v.1.15,2013-03-13 10:35:00,
2013-03-13 06:40:00,34.3,31.9,29.80,North,355,0.0,0.0,91,0.00,,,0.00,Wunderground v.1.15,2013-03-13 10:40:00,
2013-03-13 06:45:00,34.3,31.9,29.80,North,355,0.0,0.0,91,0.00,,,0.00,Wunderground v.1.15,2013-03-13 10:45:00,
2013-03-13 06:55:00,34.2,31.8,29.80,North,355,0.0,0.0,91,0.00,,,0.00,Wunderground v.1.15,2013-03-13 10:55:00,
2013-03-13 07:05:00,34.1,31.7,29.80,North,355,0.0,0.0,91,0.00,,,0.00,Wunderground v.1.15,2013-03-13 11:05:00,
2013-03-13 07:10:00,34.0,31.6,29.81,North,355,0.0,0.0,91,0.00,,,0.00,Wunderground v.1.15,2013-03-13 11:10:00,
2013-03-13 07:15:00,34.1,32.0,29.80,North,355,0.0,0.0,92,0.00,,,0.00,Wunderground v.1.15,2013-03-13 11:15:00,
2013-03-13 07:20:00,34.1,32.0,29.81,North,355,0.0,0.0,92,0.00,,,0.00,Wunderground v.1.15,2013-03-13 11:20:00,
2013-03-13 07:25:00,34.2,32.1,29.81,North,355,0.0,0.0,92,0.00,,,0.00,Wunderground v.1.15,2013-03-13 11:25:00,
2013-03-13 07:30:00,34.2,32.1,29.81,North,355,0.0,0.0,92,0.00,,,0.00,Wunderground v.1.15,2013-03-13 11:30:00,
2013-03-13 07:35:00,34.1,32.0,29.80,North,355,0.0,0.0,92,0.00,,,0.00,Wunderground v.1.15,2013-03-13 11:35:00,
2013-03-13 07:40:00,34.2,32.1,29.80,North,355,0.0,0.0,92,0.00,,,0.00,Wunderground v.1.15,2013-03-13 11:40:00,
2013-03-13 07:45:00,34.2,32.1,29.80,North,355,0.0,0.0,92,0.00,,,0.00,Wunderground v.1.15,2013-03-13 11:45:00,
2013-03-13 07:50:00,34.4,32.3,29.80,North,355,0.0,0.0,92,0.00,,,0.00,Wunderground v.1.15,2013-03-13 11:50:00,
2013-03-13 07:55:00,34.6,32.5,29.80,North,355,0.0,0.0,92,0.00,,,0.00,Wunderground v.1.15,2013-03-13 11:55:00,
2013-03-13 08:00:00,34.8,32.7,29.80,North,355,0.0,0.0,92,0.00,,,0.00,Wunderground v.1.15,2013-03-13 12:00:00,
2013-03-13 08:05:00,34.8,32.4,29.80,North,355,0.0,0.0,91,0.00,,,0.00,Wunderground v.1.15,2013-03-13 12:05:00,
2013-03-13 08:10:00,35.0,32.6,29.80,North,355,0.0,0.0,91,0.00,,,0.00,Wunderground v.1.15,2013-03-13 12:10:00,
2013-03-13 08:15:00,35.2,32.8,29.80,North,355,0.0,0.0,91,0.00,,,0.00,Wunderground v.1.15,2013-03-13 12:15:00,
2013-03-13 08:20:00,35.4,32.8,29.80,North,355,0.0,0.0,90,0.00,,,0.00,Wunderground v.1.15,2013-03-13 12:20:00,
2013-03-13 08:25:00,35.7,33.1,29.80,North,355,0.0,0.0,90,0.00,,,0.00,Wunderground v.1.15,2013-03-13 12:25:00,
2013-03-13 08:30:00,35.8,32.9,29.79,North,355,0.0,0.0,89,0.00,,,0.00,Wunderground v.1.15,2013-03-13 12:30:00,
2013-03-13 08:35:00,35.8,32.6,29.79,North,355,0.0,0.0,88,0.00,,,0.00,Wunderground v.1.15,2013-03-13 12:35:00,
2013-03-13 08:40:00,35.6,32.1,29.79,North,355,1.0,3.0,87,0.00,,,0.00,Wunderground v.1.15,2013-03-13 12:40:00,
2013-03-13 08:45:00,35.4,32.2,29.79,SW,232,1.0,3.0,88,0.00,,,0.00,Wunderground v.1.15,2013-03-13 12:45:00,
2013-03-13 08:50:00,35.3,32.1,29.79,NW,313,1.0,4.0,88,0.00,,,0.00,Wunderground v.1.15,2013-03-13 12:50:00,
2013-03-13 08:55:00,35.3,31.8,29.79,NW,311,1.0,4.0,87,0.00,,,0.00,Wunderground v.1.15,2013-03-13 12:55:00,
2013-03-13 09:10:00,35.7,31.6,29.78,NW,311,1.0,1.0,85,0.00,,,0.00,Wunderground v.1.15,2013-03-13 13:10:00,
2013-03-13 09:15:00,35.9,32.1,29.78,NW,311,1.0,1.0,86,0.00,,,0.00,Wunderground v.1.15,2013-03-13 13:15:00,
2013-03-13 09:20:00,35.9,31.8,29.78,NW,306,2.0,2.0,85,0.00,,,0.00,Wunderground v.1.15,2013-03-13 13:20:00,
2013-03-13 09:30:00,36.0,31.9,29.78,NNW,329,1.0,1.0,85,0.00,,,0.00,Wunderground v.1.15,2013-03-13 13:30:00,
2013-03-13 09:35:00,36.3,32.2,29.78,NW,322,1.0,4.0,85,0.00,,,0.00,Wunderground v.1.15,2013-03-13 13:35:00,
2013-03-13 09:40:00,36.3,31.6,29.78,WNW,303,2.0,2.0,83,0.00,,,0.00,Wunderground v.1.15,2013-03-13 13:40:00,
2013-03-13 09:55:00,36.2,30.6,29.78,WNW,287,2.0,2.0,80,0.00,,,0.00,Wunderground v.1.15,2013-03-13 13:55:00,
2013-03-13 10:00:00,36.4,31.1,29.78,WNW,283,2.0,2.0,81,0.00,,,0.00,Wunderground v.1.15,2013-03-13 14:00:00,
2013-03-13 10:05:00,36.6,31.3,29.78,WNW,301,1.0,5.0,81,0.00,,,0.00,Wunderground v.1.15,2013-03-13 14:05:00,
2013-03-13 10:10:00,36.6,31.0,29.78,West,271,2.0,4.0,80,0.00,,,0.00,Wunderground v.1.15,2013-03-13 14:10:00,
2013-03-13 10:15:00,36.6,30.7,29.78,West,275,2.0,4.0,79,0.00,,,0.00,Wunderground v.1.15,2013-03-13 14:15:00,
2013-03-13 10:20:00,36.5,30.6,29.78,WNW,289,2.0,2.0,79,0.00,,,0.00,Wunderground v.1.15,2013-03-13 14:20:00,
2013-03-13 10:25:00,36.4,30.5,29.77,WSW,251,2.0,4.0,79,0.00,,,0.00,Wunderground v.1.15,2013-03-13 14:25:00,
2013-03-13 10:35:00,36.2,30.9,29.77,North,355,2.0,2.0,81,0.00,,,0.00,Wunderground v.1.15,2013-03-13 14:35:00,
2013-03-13 10:40:00,36.4,30.8,29.77,WNW,289,1.0,1.0,80,0.00,,,0.00,Wunderground v.1.15,2013-03-13 14:40:00,
2013-03-13 10:45:00,36.4,30.5,29.77,North,349,1.0,2.0,79,0.00,,,0.00,Wunderground v.1.15,2013-03-13 14:45:00,
2013-03-13 10:50:00,36.3,30.4,29.77,NNW,333,3.0,3.0,79,0.00,,,0.00,Wunderground v.1.15,2013-03-13 14:50:00,
2013-03-13 10:55:00,36.3,30.7,29.77,WNW,301,3.0,3.0,80,0.00,,,0.00,Wunderground v.1.15,2013-03-13 14:55:00,
2013-03-13 11:00:00,36.4,30.8,29.77,NW,322,2.0,2.0,80,0.00,,,0.00,Wunderground v.1.15,2013-03-13 15:00:00,
2013-03-13 11:05:00,36.5,30.9,29.77,NNW,329,1.0,2.0,80,0.00,,,0.00,Wunderground v.1.15,2013-03-13 15:05:00,
2013-03-13 11:10:00,36.6,30.7,29.77,NNW,333,2.0,3.0,79,0.00,,,0.00,Wunderground v.1.15,2013-03-13 15:10:00,
2013-03-13 11:15:00,36.4,30.2,29.77,NNW,338,3.0,3.0,78,0.00,,,0.00,Wunderground v.1.15,2013-03-13 15:15:00,
2013-03-13 11:20:00,36.4,30.5,29.76,NNW,346,3.0,6.0,79,0.00,,,0.00,Wunderground v.1.15,2013-03-13 15:20:00,
2013-03-13 11:25:00,36.6,30.7,29.76,NNW,348,2.0,6.0,79,0.00,,,0.00,Wunderground v.1.15,2013-03-13 15:25:00,
2013-03-13 11:30:00,36.8,30.3,29.76,WNW,302,1.0,3.0,77,0.00,,,0.00,Wunderground v.1.15,2013-03-13 15:30:00,
2013-03-13 11:35:00,36.9,30.4,29.76,NW,323,2.0,3.0,77,0.00,,,0.00,Wunderground v.1.15,2013-03-13 15:35:00,
2013-03-13 11:40:00,37.0,30.1,29.76,NNW,329,2.0,2.0,76,0.00,,,0.00,Wunderground v.1.15,2013-03-13 15:40:00,
2013-03-13 11:45:00,37.2,30.0,29.76,SSW,204,2.0,2.0,75,0.00,,,0.00,Wunderground v.1.15,2013-03-13 15:45:00,
2013-03-13 11:50:00,37.3,30.1,29.76,NNE,17,2.0,2.0,75,0.00,,,0.00,Wunderground v.1.15,2013-03-13 15:50:00,
2013-03-13 11:55:00,37.3,30.1,29.76,NW,323,2.0,2.0,75,0.00,,,0.00,Wunderground v.1.15,2013-03-13 15:55:00,
2013-03-13 12:00:00,37.5,30.0,29.76,NW,325,2.0,3.0,74,0.00,,,0.00,Wunderground v.1.15,2013-03-13 16:00:00,
2013-03-13 12:05:00,37.6,30.1,29.76,NW,325,2.0,3.0,74,0.00,,,0.00,Wunderground v.1.15,2013-03-13 16:05:00,
2013-03-13 12:10:00,37.8,30.6,29.76,North,5,2.0,3.0,75,0.00,,,0.00,Wunderground v.1.15,2013-03-13 16:10:00,
2013-03-13 12:15:00,37.4,29.9,29.76,NNW,346,3.0,4.0,74,0.00,,,0.00,Wunderground v.1.15,2013-03-13 16:15:00,
2013-03-13 12:20:00,37.2,30.3,29.76,NNW,346,3.0,3.0,76,0.00,,,0.00,Wunderground v.1.15,2013-03-13 16:20:00,
2013-03-13 12:25:00,37.1,29.9,29.76,South,169,2.0,3.0,75,0.00,,,0.00,Wunderground v.1.15,2013-03-13 16:25:00,
2013-03-13 12:30:00,37.2,29.3,29.76,West,277,2.0,2.0,73,0.00,,,0.00,Wunderground v.1.15,2013-03-13 16:30:00,
2013-03-13 12:35:00,37.3,29.8,29.76,NNW,329,1.0,2.0,74,0.00,,,0.00,Wunderground v.1.15,2013-03-13 16:35:00,
2013-03-13 12:40:00,37.3,29.4,29.76,WNW,298,2.0,2.0,73,0.00,,,0.00,Wunderground v.1.15,2013-03-13 16:40:00,
2013-03-13 12:45:00,37.4,29.5,29.76,NNW,330,2.0,2.0,73,0.00,,,0.00,Wunderground v.1.15,2013-03-13 16:45:00,
2013-03-13 12:50:00,37.5,29.3,29.76,West,263,2.0,4.0,72,0.00,,,0.00,Wunderground v.1.15,2013-03-13 16:50:00,
2013-03-13 12:55:00,37.4,28.5,29.76,WSW,258,2.0,4.0,70,0.00,,,0.00,Wunderground v.1.15,2013-03-13 16:55:00,
2013-03-13 13:00:00,37.3,28.1,29.76,West,270,4.0,6.0,69,0.00,,,0.00,Wunderground v.1.15,2013-03-13 17:00:00,
2013-03-13 13:05:00,37.2,28.3,29.76,WSW,252,4.0,6.0,70,0.00,,,0.00,Wunderground v.1.15,2013-03-13 17:05:00,
2013-03-13 13:15:00,37.4,28.5,29.76,WNW,289,1.0,2.0,70,0.00,,,0.00,Wunderground v.1.15,2013-03-13 17:15:00,
2013-03-13 13:20:00,37.3,27.7,29.76,SW,232,2.0,3.0,68,0.00,,,0.00,Wunderground v.1.15,2013-03-13 17:20:00,
2013-03-13 13:25:00,37.1,27.2,29.75,West,263,4.0,4.0,67,0.00,,,0.00,Wunderground v.1.15,2013-03-13 17:25:00,
2013-03-13 13:30:00,37.3,27.3,29.75,South,191,4.0,7.0,67,0.00,,,0.00,Wunderground v.1.15,2013-03-13 17:30:00,
2013-03-13 13:35:00,37.3,27.7,29.75,West,264,4.0,7.0,68,0.00,,,0.00,Wunderground v.1.15,2013-03-13 17:35:00,
2013-03-13 13:40:00,37.2,27.6,29.75,West,275,4.0,7.0,68,0.00,,,0.00,Wunderground v.1.15,2013-03-13 17:40:00,
2013-03-13 13:45:00,37.1,28.2,29.75,WSW,247,5.0,7.0,70,0.00,,,0.00,Wunderground v.1.15,2013-03-13 17:45:00,
2013-03-13 13:50:00,36.9,28.0,29.75,WSW,253,5.0,5.0,70,0.00,,,0.00,Wunderground v.1.15,2013-03-13 17:50:00,
2013-03-13 13:55:00,36.6,28.1,29.75,NNW,340,5.0,5.0,71,0.00,,,0.00,Wunderground v.1.15,2013-03-13 17:55:00,
2013-03-13 14:00:00,36.4,27.9,29.75,WSW,256,4.0,4.0,71,0.00,,,0.00,Wunderground v.1.15,2013-03-13 18:00:00,
2013-03-13 14:05:00,36.1,26.9,29.75,NW,307,3.0,4.0,69,0.00,,,0.00,Wunderground v.1.15,2013-03-13 18:05:00,
2013-03-13 14:10:00,36.0,26.5,29.75,WNW,296,4.0,5.0,68,0.00,,,0.00,Wunderground v.1.15,2013-03-13 18:10:00,
2013-03-13 14:15:00,36.1,26.9,29.75,NW,321,3.0,5.0,69,0.00,,,0.00,Wunderground v.1.15,2013-03-13 18:15:00,
2013-03-13 14:20:00,36.6,27.7,29.75,North,351,2.0,5.0,70,0.00,,,0.00,Wunderground v.1.15,2013-03-13 18:20:00,
2013-03-13 14:30:00,37.4,27.8,29.74,North,351,2.0,3.0,68,0.00,,,0.00,Wunderground v.1.15,2013-03-13 18:30:00,
2013-03-13 14:35:00,37.4,27.8,29.74,West,276,2.0,3.0,68,0.00,,,0.00,Wunderground v.1.15,2013-03-13 18:35:00,
2013-03-13 14:40:00,37.3,27.3,29.74,West,273,3.0,3.0,67,0.00,,,0.00,Wunderground v.1.15,2013-03-13 18:40:00,
2013-03-13 14:45:00,37.5,27.9,29.74,SW,216,2.0,4.0,68,0.00,,,0.00,Wunderground v.1.15,2013-03-13 18:45:00,
2013-03-13 14:50:00,37.6,27.3,29.74,West,280,2.0,2.0,66,0.00,,,0.00,Wunderground v.1.15,2013-03-13 18:50:00,
2013-03-13 14:55:00,37.7,27.4,29.73,West,275,3.0,5.0,66,0.00,,,0.00,Wunderground v.1.15,2013-03-13 18:55:00,
2013-03-13 15:00:00,37.7,27.0,29.74,NW,309,4.0,4.0,65,0.00,,,0.00,Wunderground v.1.15,2013-03-13 19:00:00,
2013-03-13 15:05:00,38.1,27.0,29.74,SW,219,4.0,4.0,64,0.00,,,0.00,Wunderground v.1.15,2013-03-13 19:05:00,
2013-03-13 15:10:00,38.5,27.0,29.73,NW,311,2.0,2.0,63,0.00,,,0.00,Wunderground v.1.15,2013-03-13 19:10:00,
2013-03-13 15:20:00,38.5,27.0,29.73,WSW,245,2.0,6.0,63,0.00,,,0.00,Wunderground v.1.15,2013-03-13 19:20:00,
2013-03-13 15:25:00,37.9,26.0,29.74,WSW,254,3.0,6.0,62,0.00,,,0.00,Wunderground v.1.15,2013-03-13 19:25:00,
2013-03-13 15:30:00,37.6,25.7,29.74,WNW,299,5.0,5.0,62,0.00,,,0.00,Wunderground v.1.15,2013-03-13 19:30:00,
2013-03-13 15:35:00,37.6,26.1,29.73,NW,307,4.0,5.0,63,0.00,,,0.00,Wunderground v.1.15,2013-03-13 19:35:00,
2013-03-13 15:40:00,37.9,26.0,29.73,WSW,258,3.0,4.0,62,0.00,,,0.00,Wunderground v.1.15,2013-03-13 19:40:00,
2013-03-13 15:45:00,38.1,26.2,29.73,North,355,2.0,5.0,62,0.00,,,0.00,Wunderground v.1.15,2013-03-13 19:45:00,
2013-03-13 15:50:00,38.2,26.3,29.73,SW,236,3.0,8.0,62,0.00,,,0.00,Wunderground v.1.15,2013-03-13 19:50:00,
2013-03-13 15:55:00,37.9,26.0,29.73,NNW,329,3.0,8.0,62,0.00,,,0.00,Wunderground v.1.15,2013-03-13 19:55:00,
2013-03-13 16:00:00,37.8,26.3,29.73,NNW,327,4.0,4.0,63,0.00,,,0.00,Wunderground v.1.15,2013-03-13 20:00:00,
2013-03-13 16:05:00,37.8,26.3,29.73,NNW,346,3.0,4.0,63,0.00,,,0.00,Wunderground v.1.15,2013-03-13 20:05:00,
2013-03-13 16:10:00,37.9,26.4,29.73,SSE,161,2.0,2.0,63,0.00,,,0.00,Wunderground v.1.15,2013-03-13 20:10:00,
2013-03-13 16:15:00,38.1,26.2,29.73,SW,215,2.0,3.0,62,0.00,,,0.00,Wunderground v.1.15,2013-03-13 20:15:00,
2013-03-13 16:20:00,38.2,26.3,29.73,WNW,297,2.0,2.0,62,0.00,,,0.00,Wunderground v.1.15,2013-03-13 20:20:00,
2013-03-13 16:25:00,38.4,26.9,29.74,WNW,284,2.0,6.0,63,0.00,,,0.00,Wunderground v.1.15,2013-03-13 20:25:00,
2013-03-13 16:30:00,38.0,26.5,29.74,WSW,244,3.0,3.0,63,0.00,,,0.00,Wunderground v.1.15,2013-03-13 20:30:00,
2013-03-13 16:35:00,37.8,26.7,29.74,WNW,285,3.0,3.0,64,0.00,,,0.00,Wunderground v.1.15,2013-03-13 20:35:00,
2013-03-13 16:40:00,37.7,27.0,29.74,WNW,290,2.0,2.0,65,0.00,,,0.00,Wunderground v.1.15,2013-03-13 20:40:00,
2013-03-13 16:45:00,37.7,27.4,29.73,West,261,2.0,4.0,66,0.00,,,0.00,Wunderground v.1.15,2013-03-13 20:45:00,
2013-03-13 16:50:00,37.8,27.1,29.74,NW,304,2.0,3.0,65,0.00,,,0.00,Wunderground v.1.15,2013-03-13 20:50:00,
2013-03-13 16:55:00,38.1,27.7,29.73,NW,326,3.0,5.0,66,0.00,,,0.00,Wunderground v.1.15,2013-03-13 20:55:00,
2013-03-13 17:00:00,38.6,27.8,29.73,WNW,294,3.0,3.0,65,0.00,,,0.00,Wunderground v.1.15,2013-03-13 21:00:00,
2013-03-13 17:05:00,38.7,27.6,29.73,SSW,207,3.0,3.0,64,0.00,,,0.00,Wunderground v.1.15,2013-03-13 21:05:00,
2013-03-13 17:10:00,38.7,27.2,29.74,SW,232,3.0,3.0,63,0.00,,,0.00,Wunderground v.1.15,2013-03-13 21:10:00,
2013-03-13 17:15:00,38.2,26.3,29.74,West,272,3.0,3.0,62,0.00,,,0.00,Wunderground v.1.15,2013-03-13 21:15:00,
2013-03-13 17:25:00,38.0,25.7,29.74,SW,229,3.0,3.0,61,0.00,,,0.00,Wunderground v.1.15,2013-03-13 21:25:00,
2013-03-13 17:30:00,37.7,25.8,29.74,SW,219,2.0,2.0,62,0.00,,,0.00,Wunderground v.1.15,2013-03-13 21:30:00,
2013-03-13 17:35:00,37.5,26.0,29.74,SW,222,1.0,2.0,63,0.00,,,0.00,Wunderground v.1.15,2013-03-13 21:35:00,
2013-03-13 17:40:00,37.1,25.7,29.73,SSW,194,1.0,1.0,63,0.00,,,0.00,Wunderground v.1.15,2013-03-13 21:40:00,
2013-03-13 17:45:00,36.9,25.9,29.73,SSE,158,2.0,3.0,64,0.00,,,0.00,Wunderground v.1.15,2013-03-13 21:45:00,
2013-03-13 17:50:00,36.6,25.6,29.73,SW,225,2.0,2.0,64,0.00,,,0.00,Wunderground v.1.15,2013-03-13 21:50:00,
2013-03-13 17:55:00,36.5,26.2,29.73,SW,225,2.0,2.0,66,0.00,,,0.00,Wunderground v.1.15,2013-03-13 21:55:00,
2013-03-13 18:00:00,36.4,26.1,29.73,SW,225,1.0,1.0,66,0.00,,,0.00,Wunderground v.1.15,2013-03-13 22:00:00,
2013-03-13 18:05:00,36.4,26.8,29.73,SW,225,0.0,1.0,68,0.00,,,0.00,Wunderground v.1.15,2013-03-13 22:05:00,
2013-03-13 18:10:00,36.4,26.5,29.74,SW,225,0.0,0.0,67,0.00,,,0.00,Wunderground v.1.15,2013-03-13 22:10:00,
2013-03-13 18:15:00,36.4,27.5,29.74,SW,225,0.0,0.0,70,0.00,,,0.00,Wunderground v.1.15,2013-03-13 22:15:00,
2013-03-13 18:20:00,36.2,26.6,29.74,WSW,252,1.0,1.0,68,0.00,,,0.00,Wunderground v.1.15,2013-03-13 22:20:00,
2013-03-13 18:25:00,36.1,26.6,29.74,SW,218,2.0,2.0,68,0.00,,,0.00,Wunderground v.1.15,2013-03-13 22:25:00,
2013-03-13 18:30:00,36.0,26.5,29.74,West,261,3.0,3.0,68,0.00,,,0.00,Wunderground v.1.15,2013-03-13 22:30:00,
2013-03-13 18:35:00,35.6,27.1,29.74,West,275,4.0,4.0,71,0.00,,,0.00,Wunderground v.1.15,2013-03-13 22:35:00,
2013-03-13 18:45:00,34.8,27.4,29.75,WSW,246,4.0,4.0,74,0.00,,,0.00,Wunderground v.1.15,2013-03-13 22:45:00,
2013-03-13 18:50:00,34.3,27.5,29.75,West,268,5.0,5.0,76,0.00,,,0.00,Wunderground v.1.15,2013-03-13 22:50:00,
2013-03-13 18:55:00,33.9,27.8,29.75,WSW,246,4.0,6.0,78,0.00,,,0.00,Wunderground v.1.15,2013-03-13 22:55:00,
2013-03-13 19:00:00,33.5,28.3,29.75,WSW,238,4.0,6.0,81,0.00,,,0.00,Wunderground v.1.15,2013-03-13 23:00:00,
2013-03-13 19:05:00,33.2,28.3,29.75,West,281,4.0,6.0,82,0.00,,,0.00,Wunderground v.1.15,2013-03-13 23:05:00,
2013-03-13 19:10:00,33.1,28.2,29.75,WSW,252,3.0,3.0,82,0.00,,,0.00,Wunderground v.1.15,2013-03-13 23:10:00,
2013-03-13 19:15:00,33.0,28.4,29.76,WSW,251,3.0,4.0,83,0.00,,,0.00,Wunderground v.1.15,2013-03-13 23:15:00,
2013-03-13 19:20:00,33.0,28.4,29.76,West,262,3.0,3.0,83,0.00,,,0.00,Wunderground v.1.15,2013-03-13 23:20:00,
2013-03-13 19:25:00,32.9,28.6,29.76,WSW,257,2.0,3.0,84,0.00,,,0.00,Wunderground v.1.15,2013-03-13 23:25:00,
2013-03-13 19:30:00,32.8,28.8,29.76,SW,227,2.0,2.0,85,0.00,,,0.00,Wunderground v.1.15,2013-03-13 23:30:00,
2013-03-13 19:35:00,32.7,28.7,29.76,WNW,286,2.0,4.0,85,0.00,,,0.00,Wunderground v.1.15,2013-03-13 23:35:00,
2013-03-13 19:40:00,32.6,28.9,29.76,West,281,2.0,2.0,86,0.00,,,0.00,Wunderground v.1.15,2013-03-13 23:40:00,
2013-03-13 19:45:00,32.6,28.9,29.76,NNW,341,1.0,2.0,86,0.00,,,0.00,Wunderground v.1.15,2013-03-13 23:45:00,
2013-03-13 19:50:00,32.6,28.9,29.76,NW,313,1.0,2.0,86,0.00,,,0.00,Wunderground v.1.15,2013-03-13 23:50:00,
2013-03-13 19:55:00,32.6,28.9,29.76,NW,306,0.0,2.0,86,0.00,,,0.00,Wunderground v.1.15,2013-03-13 23:55:00,
2013-03-13 20:00:00,32.6,28.9,29.76,NW,306,0.0,0.0,86,0.00,,,0.00,Wunderground v.1.15,2013-03-14 00:00:00,
2013-03-13 20:15:00,32.7,29.0,29.76,NW,312,0.0,0.0,86,0.00,,,0.00,Wunderground v.1.15,2013-03-14 00:15:00,
2013-03-13 20:20:00,32.7,29.0,29.76,NW,312,0.0,0.0,86,0.00,,,0.00,Wunderground v.1.15,2013-03-14 00:20:00,
2013-03-13 20:25:00,32.6,28.9,29.76,NW,312,0.0,0.0,86,0.00,,,0.00,Wunderground v.1.15,2013-03-14 00:25:00,
2013-03-13 20:30:00,32.4,28.7,29.76,NW,312,0.0,0.0,86,0.00,,,0.00,Wunderground v.1.15,2013-03-14 00:30:00,
2013-03-13 20:35:00,32.3,28.6,29.76,NW,312,0.0,0.0,86,0.00,,,0.00,Wunderground v.1.15,2013-03-14 00:35:00,
2013-03-13 20:40:00,32.0,28.3,29.76,NW,312,0.0,0.0,86,0.00,,,0.00,Wunderground v.1.15,2013-03-14 00:40:00,
2013-03-13 21:00:00,30.8,27.4,29.76,NW,312,0.0,0.0,87,0.00,,,0.00,Wunderground v.1.15,2013-03-14 01:00:00,
2013-03-13 21:55:00,29.1,26.3,29.76,NW,312,0.0,0.0,89,0.00,,,0.00,Wunderground v.1.15,2013-03-14 01:55:00,
2013-03-13 22:00:00,29.0,26.2,29.76,NW,312,0.0,0.0,89,0.00,,,0.00,Wunderground v.1.15,2013-03-14 02:00:00,
2013-03-13 22:10:00,29.0,26.2,29.76,NW,312,0.0,0.0,89,0.00,,,0.00,Wunderground v.1.15,2013-03-14 02:10:00,
2013-03-13 22:20:00,28.7,25.9,29.76,NW,312,0.0,0.0,89,0.00,,,0.00,Wunderground v.1.15,2013-03-14 02:20:00,
2013-03-13 22:25:00,28.4,25.8,29.76,NW,312,0.0,0.0,90,0.00,,,0.00,Wunderground v.1.15,2013-03-14 02:25:00,
2013-03-13 22:30:00,28.3,25.7,29.76,NW,312,0.0,0.0,90,0.00,,,0.00,Wunderground v.1.15,2013-03-14 02:30:00,
2013-03-13 22:35:00,28.2,25.6,29.76,NW,312,0.0,0.0,90,0.00,,,0.00,Wunderground v.1.15,2013-03-14 02:35:00,
2013-03-13 22:40:00,28.1,25.5,29.76,NW,312,0.0,0.0,90,0.00,,,0.00,Wunderground v.1.15,2013-03-14 02:40:00,
2013-03-13 22:45:00,27.9,25.1,29.76,NW,312,0.0,0.0,89,0.00,,,0.00,Wunderground v.1.15,2013-03-14 02:45:00,
2013-03-13 22:55:00,27.6,25.1,29.76,NW,312,0.0,0.0,90,0.00,,,0.00,Wunderground v.1.15,2013-03-14 02:55:00,
2013-03-13 23:00:00,27.5,25.0,29.76,NW,312,0.0,0.0,90,0.00,,,0.00,Wunderground v.1.15,2013-03-14 03:00:00,
2013-03-13 23:05:00,27.4,24.9,29.76,NW,312,0.0,0.0,90,0.00,,,0.00,Wunderground v.1.15,2013-03-14 03:05:00,
2013-03-13 23:10:00,27.3,24.8,29.76,NW,312,0.0,0.0,90,0.00,,,0.00,Wunderground v.1.15,2013-03-14 03:10:00,
2013-03-13 23:15:00,27.2,24.7,29.75,NW,312,0.0,2.0,90,0.00,,,0.00,Wunderground v.1.15,2013-03-14 03:15:00,
2013-03-13 23:20:00,27.2,24.9,29.75,NW,312,1.0,1.0,91,0.00,,,0.00,Wunderground v.1.15,2013-03-14 03:20:00,
2013-03-13 23:25:00,27.3,25.0,29.75,NW,312,1.0,1.0,91,0.00,,,0.00,Wunderground v.1.15,2013-03-14 03:25:00,
2013-03-13 23:30:00,27.2,24.7,29.75,NW,312,0.0,0.0,90,0.00,,,0.00,Wunderground v.1.15,2013-03-14 03:30:00,
2013-03-13 23:35:00,27.1,24.6,29.75,NW,312,0.0,0.0,90,0.00,,,0.00,Wunderground v.1.15,2013-03-14 03:35:00,
2013-03-13 23:40:00,27.0,24.5,29.75,NW,312,0.0,0.0,90,0.00,,,0.00,Wunderground v.1.15,2013-03-14 03:40:00,
2013-03-13 23:50:00,26.9,24.1,29.75,NW,312,0.0,0.0,89,0.00,,,0.00,Wunderground v.1.15,2013-03-14 03:50:00,
2013-03-13 23:55:00,26.8,24.0,29.75,NW,312,0.0,0.0,89,0.00,,,0.00,Wunderground v.1.15,2013-03-14 03:55:00,